sensor_id;sensor_type;location;lat;lon;timestamp;temperature;humidity
70726;DHT22;58304;53.104;6.022;2022-09-06T00:00:22;21.40;91.00
70726;DHT22;58304;53.104;6.022;2022-09-06T00:02:47;21.30;91.10
70726;DHT22;58304;53.104;6.022;2022-09-06T00:05:13;21.30;91.20
70726;DHT22;58304;53.104;6.022;2022-09-06T00:07:39;21.30;91.20
70726;DHT22;58304;53.104;6.022;2022-09-06T00:10:06;21.30;91.30
70726;DHT22;58304;53.104;6.022;2022-09-06T00:12:32;21.30;91.40
70726;DHT22;58304;53.104;6.022;2022-09-06T00:14:58;21.20;91.70
70726;DHT22;58304;53.104;6.022;2022-09-06T00:17:23;21.10;92.20
70726;DHT22;58304;53.104;6.022;2022-09-06T00:19:49;21.10;92.40
70726;DHT22;58304;53.104;6.022;2022-09-06T00:22:15;21.10;92.40
70726;DHT22;58304;53.104;6.022;2022-09-06T00:24:41;21.00;92.50
70726;DHT22;58304;53.104;6.022;2022-09-06T00:27:08;21.00;93.00
70726;DHT22;58304;53.104;6.022;2022-09-06T00:29:34;21.00;93.50
70726;DHT22;58304;53.104;6.022;2022-09-06T00:31:59;20.80;93.80
70726;DHT22;58304;53.104;6.022;2022-09-06T00:34:26;20.90;93.90
70726;DHT22;58304;53.104;6.022;2022-09-06T00:36:52;20.90;94.00
70726;DHT22;58304;53.104;6.022;2022-09-06T00:39:18;20.90;94.10
70726;DHT22;58304;53.104;6.022;2022-09-06T00:41:44;20.90;94.30
70726;DHT22;58304;53.104;6.022;2022-09-06T00:44:09;20.90;94.70
70726;DHT22;58304;53.104;6.022;2022-09-06T00:46:36;20.90;94.90
70726;DHT22;58304;53.104;6.022;2022-09-06T00:49:15;20.90;95.00
70726;DHT22;58304;53.104;6.022;2022-09-06T00:51:50;20.80;95.70
70726;DHT22;58304;53.104;6.022;2022-09-06T00:54:16;20.80;95.30
70726;DHT22;58304;53.104;6.022;2022-09-06T00:56:43;20.80;95.40
70726;DHT22;58304;53.104;6.022;2022-09-06T00:59:09;20.80;95.40
70726;DHT22;58304;53.104;6.022;2022-09-06T01:01:35;20.90;95.70
70726;DHT22;58304;53.104;6.022;2022-09-06T01:04:01;20.90;95.90
70726;DHT22;58304;53.104;6.022;2022-09-06T01:12:24;20.90;95.60
70726;DHT22;58304;53.104;6.022;2022-09-06T01:15:08;20.90;96.20
70726;DHT22;58304;53.104;6.022;2022-09-06T01:18:27;20.90;96.30
70726;DHT22;58304;53.104;6.022;2022-09-06T01:24:05;20.80;96.60
70726;DHT22;58304;53.104;6.022;2022-09-06T01:34:53;20.80;96.20
70726;DHT22;58304;53.104;6.022;2022-09-06T01:37:22;20.90;96.60
70726;DHT22;58304;53.104;6.022;2022-09-06T01:39:48;20.80;96.30
70726;DHT22;58304;53.104;6.022;2022-09-06T01:42:24;20.80;96.30
70726;DHT22;58304;53.104;6.022;2022-09-06T02:04:12;20.80;95.80
70726;DHT22;58304;53.104;6.022;2022-09-06T02:06:45;20.80;95.70
70726;DHT22;58304;53.104;6.022;2022-09-06T02:09:19;20.80;95.70
70726;DHT22;58304;53.104;6.022;2022-09-06T02:11:53;20.80;95.80
70726;DHT22;58304;53.104;6.022;2022-09-06T02:14:28;20.80;95.80
70726;DHT22;58304;53.104;6.022;2022-09-06T02:16:56;20.70;95.60
70726;DHT22;58304;53.104;6.022;2022-09-06T02:19:36;20.70;95.50
70726;DHT22;58304;53.104;6.022;2022-09-06T02:22:07;20.70;95.50
70726;DHT22;58304;53.104;6.022;2022-09-06T02:24:35;20.70;95.50
70726;DHT22;58304;53.104;6.022;2022-09-06T02:27:03;20.70;95.40
70726;DHT22;58304;53.104;6.022;2022-09-06T02:29:29;20.70;95.30
70726;DHT22;58304;53.104;6.022;2022-09-06T02:32:05;20.70;95.20
70726;DHT22;58304;53.104;6.022;2022-09-06T02:34:36;20.70;95.40
70726;DHT22;58304;53.104;6.022;2022-09-06T02:37:02;20.70;95.40
70726;DHT22;58304;53.104;6.022;2022-09-06T02:39:28;20.60;95.20
70726;DHT22;58304;53.104;6.022;2022-09-06T02:41:54;20.70;95.30
70726;DHT22;58304;53.104;6.022;2022-09-06T02:44:19;20.60;95.30
70726;DHT22;58304;53.104;6.022;2022-09-06T02:46:45;20.60;95.40
70726;DHT22;58304;53.104;6.022;2022-09-06T02:49:11;20.50;95.50
70726;DHT22;58304;53.104;6.022;2022-09-06T02:51:37;20.50;95.50
70726;DHT22;58304;53.104;6.022;2022-09-06T02:54:04;20.50;95.50
70726;DHT22;58304;53.104;6.022;2022-09-06T02:56:30;20.50;95.60
70726;DHT22;58304;53.104;6.022;2022-09-06T02:59:00;20.50;95.60
70726;DHT22;58304;53.104;6.022;2022-09-06T03:01:26;20.40;95.70
70726;DHT22;58304;53.104;6.022;2022-09-06T03:03:51;20.40;95.90
70726;DHT22;58304;53.104;6.022;2022-09-06T03:06:17;20.30;96.10
70726;DHT22;58304;53.104;6.022;2022-09-06T03:08:43;20.30;96.10
70726;DHT22;58304;53.104;6.022;2022-09-06T03:11:08;20.30;96.20
70726;DHT22;58304;53.104;6.022;2022-09-06T03:13:34;20.20;96.40
70726;DHT22;58304;53.104;6.022;2022-09-06T03:16:00;20.20;96.50
70726;DHT22;58304;53.104;6.022;2022-09-06T03:18:28;20.10;96.60
70726;DHT22;58304;53.104;6.022;2022-09-06T03:20:54;20.10;96.60
70726;DHT22;58304;53.104;6.022;2022-09-06T03:23:22;20.10;97.00
70726;DHT22;58304;53.104;6.022;2022-09-06T03:25:48;20.00;97.00
70726;DHT22;58304;53.104;6.022;2022-09-06T03:28:15;20.00;97.00
70726;DHT22;58304;53.104;6.022;2022-09-06T03:30:44;20.10;97.20
70726;DHT22;58304;53.104;6.022;2022-09-06T03:33:09;20.10;97.20
70726;DHT22;58304;53.104;6.022;2022-09-06T03:35:35;20.00;97.50
70726;DHT22;58304;53.104;6.022;2022-09-06T03:38:01;20.00;97.30
70726;DHT22;58304;53.104;6.022;2022-09-06T03:40:27;20.00;97.40
70726;DHT22;58304;53.104;6.022;2022-09-06T03:42:52;20.00;97.40
70726;DHT22;58304;53.104;6.022;2022-09-06T03:45:18;19.90;97.60
70726;DHT22;58304;53.104;6.022;2022-09-06T03:47:44;20.00;97.60
70726;DHT22;58304;53.104;6.022;2022-09-06T03:50:09;20.00;97.70
70726;DHT22;58304;53.104;6.022;2022-09-06T03:52:37;20.00;97.70
70726;DHT22;58304;53.104;6.022;2022-09-06T03:55:03;20.00;98.00
70726;DHT22;58304;53.104;6.022;2022-09-06T03:57:30;19.90;98.00
70726;DHT22;58304;53.104;6.022;2022-09-06T03:59:55;20.00;98.30
70726;DHT22;58304;53.104;6.022;2022-09-06T04:02:21;19.90;98.40
70726;DHT22;58304;53.104;6.022;2022-09-06T04:04:49;19.80;98.70
70726;DHT22;58304;53.104;6.022;2022-09-06T04:07:17;19.80;98.90
70726;DHT22;58304;53.104;6.022;2022-09-06T04:09:44;19.80;99.70
70726;DHT22;58304;53.104;6.022;2022-09-06T04:12:09;19.70;99.90
70726;DHT22;58304;53.104;6.022;2022-09-06T04:14:35;19.60;99.90
70726;DHT22;58304;53.104;6.022;2022-09-06T04:17:01;19.60;99.90
70726;DHT22;58304;53.104;6.022;2022-09-06T04:19:26;19.50;99.90
70726;DHT22;58304;53.104;6.022;2022-09-06T04:21:52;19.40;99.90
70726;DHT22;58304;53.104;6.022;2022-09-06T04:24:18;19.30;99.90
70726;DHT22;58304;53.104;6.022;2022-09-06T04:26:43;19.20;99.90
70726;DHT22;58304;53.104;6.022;2022-09-06T04:29:09;19.20;99.90
70726;DHT22;58304;53.104;6.022;2022-09-06T04:31:34;19.20;99.90
70726;DHT22;58304;53.104;6.022;2022-09-06T04:34:00;19.20;99.90
70726;DHT22;58304;53.104;6.022;2022-09-06T04:36:28;19.00;99.90
70726;DHT22;58304;53.104;6.022;2022-09-06T04:38:54;19.00;99.90
70726;DHT22;58304;53.104;6.022;2022-09-06T04:41:20;18.90;99.90
70726;DHT22;58304;53.104;6.022;2022-09-06T04:43:46;18.90;99.90
70726;DHT22;58304;53.104;6.022;2022-09-06T04:46:19;18.80;99.90
70726;DHT22;58304;53.104;6.022;2022-09-06T04:48:46;18.80;99.90
70726;DHT22;58304;53.104;6.022;2022-09-06T04:51:12;18.80;99.90
70726;DHT22;58304;53.104;6.022;2022-09-06T04:53:38;18.70;99.90
70726;DHT22;58304;53.104;6.022;2022-09-06T04:56:04;18.70;99.90
70726;DHT22;58304;53.104;6.022;2022-09-06T04:58:29;18.80;99.90
70726;DHT22;58304;53.104;6.022;2022-09-06T05:00:55;18.70;99.90
70726;DHT22;58304;53.104;6.022;2022-09-06T05:03:24;18.70;99.90
70726;DHT22;58304;53.104;6.022;2022-09-06T05:05:49;18.60;99.90
70726;DHT22;58304;53.104;6.022;2022-09-06T05:08:17;18.50;99.90
70726;DHT22;58304;53.104;6.022;2022-09-06T05:10:43;18.50;99.90
70726;DHT22;58304;53.104;6.022;2022-09-06T05:13:08;18.50;99.90
70726;DHT22;58304;53.104;6.022;2022-09-06T05:15:34;18.50;99.90
70726;DHT22;58304;53.104;6.022;2022-09-06T05:18:03;18.50;99.90
70726;DHT22;58304;53.104;6.022;2022-09-06T05:20:30;18.50;99.90
70726;DHT22;58304;53.104;6.022;2022-09-06T05:22:55;18.50;99.90
70726;DHT22;58304;53.104;6.022;2022-09-06T05:25:21;18.60;99.90
70726;DHT22;58304;53.104;6.022;2022-09-06T05:27:47;18.50;99.90
70726;DHT22;58304;53.104;6.022;2022-09-06T05:30:13;18.60;99.90
70726;DHT22;58304;53.104;6.022;2022-09-06T05:32:39;18.50;99.90
70726;DHT22;58304;53.104;6.022;2022-09-06T05:35:04;18.50;99.90
70726;DHT22;58304;53.104;6.022;2022-09-06T05:37:30;18.50;99.90
70726;DHT22;58304;53.104;6.022;2022-09-06T05:39:56;18.50;99.90
70726;DHT22;58304;53.104;6.022;2022-09-06T05:42:24;18.40;99.90
70726;DHT22;58304;53.104;6.022;2022-09-06T05:44:49;18.40;99.90
70726;DHT22;58304;53.104;6.022;2022-09-06T05:47:15;18.40;99.90
70726;DHT22;58304;53.104;6.022;2022-09-06T05:49:40;18.50;99.90
70726;DHT22;58304;53.104;6.022;2022-09-06T05:52:06;18.40;99.90
70726;DHT22;58304;53.104;6.022;2022-09-06T05:54:32;18.40;99.90
70726;DHT22;58304;53.104;6.022;2022-09-06T05:56:57;18.40;99.90
70726;DHT22;58304;53.104;6.022;2022-09-06T05:59:23;18.50;99.90
70726;DHT22;58304;53.104;6.022;2022-09-06T06:01:50;18.50;99.90
70726;DHT22;58304;53.104;6.022;2022-09-06T06:04:17;18.50;99.90
70726;DHT22;58304;53.104;6.022;2022-09-06T06:06:45;18.50;99.90
70726;DHT22;58304;53.104;6.022;2022-09-06T06:09:12;18.40;99.90
70726;DHT22;58304;53.104;6.022;2022-09-06T06:11:37;18.50;99.90
70726;DHT22;58304;53.104;6.022;2022-09-06T06:14:03;18.50;99.90
70726;DHT22;58304;53.104;6.022;2022-09-06T06:16:29;18.50;99.90
70726;DHT22;58304;53.104;6.022;2022-09-06T06:18:55;18.50;99.90
70726;DHT22;58304;53.104;6.022;2022-09-06T06:21:26;18.50;99.90
70726;DHT22;58304;53.104;6.022;2022-09-06T06:23:54;18.60;99.90
70726;DHT22;58304;53.104;6.022;2022-09-06T06:26:20;18.70;99.90
70726;DHT22;58304;53.104;6.022;2022-09-06T06:28:46;18.70;99.90
70726;DHT22;58304;53.104;6.022;2022-09-06T06:31:11;18.80;99.90
70726;DHT22;58304;53.104;6.022;2022-09-06T06:33:38;18.80;99.90
70726;DHT22;58304;53.104;6.022;2022-09-06T06:36:04;18.80;99.90
70726;DHT22;58304;53.104;6.022;2022-09-06T06:40:57;19.00;99.90
70726;DHT22;58304;53.104;6.022;2022-09-06T06:43:22;19.10;99.90
70726;DHT22;58304;53.104;6.022;2022-09-06T06:45:48;19.10;99.90
70726;DHT22;58304;53.104;6.022;2022-09-06T06:48:14;19.20;99.90
70726;DHT22;58304;53.104;6.022;2022-09-06T06:50:40;19.20;99.90
70726;DHT22;58304;53.104;6.022;2022-09-06T06:53:06;19.30;99.90
70726;DHT22;58304;53.104;6.022;2022-09-06T06:55:31;19.50;99.90
70726;DHT22;58304;53.104;6.022;2022-09-06T06:57:59;19.60;99.90
70726;DHT22;58304;53.104;6.022;2022-09-06T07:00:24;19.60;99.90
70726;DHT22;58304;53.104;6.022;2022-09-06T07:02:50;20.20;99.90
70726;DHT22;58304;53.104;6.022;2022-09-06T07:05:17;21.70;99.90
70726;DHT22;58304;53.104;6.022;2022-09-06T07:07:42;23.40;99.90
70726;DHT22;58304;53.104;6.022;2022-09-06T07:10:08;23.80;99.90
70726;DHT22;58304;53.104;6.022;2022-09-06T07:12:35;25.20;99.90
70726;DHT22;58304;53.104;6.022;2022-09-06T07:15:00;26.10;99.90
70726;DHT22;58304;53.104;6.022;2022-09-06T07:17:26;26.10;99.90
70726;DHT22;58304;53.104;6.022;2022-09-06T07:19:52;25.90;98.60
70726;DHT22;58304;53.104;6.022;2022-09-06T07:22:18;26.60;98.40
70726;DHT22;58304;53.104;6.022;2022-09-06T07:24:43;28.10;97.40
70726;DHT22;58304;53.104;6.022;2022-09-06T07:27:09;29.00;93.70
70726;DHT22;58304;53.104;6.022;2022-09-06T07:29:34;29.40;93.20
70726;DHT22;58304;53.104;6.022;2022-09-06T07:32:00;29.90;91.10
70726;DHT22;58304;53.104;6.022;2022-09-06T07:34:26;30.50;89.50
70726;DHT22;58304;53.104;6.022;2022-09-06T07:36:54;30.60;87.40
70726;DHT22;58304;53.104;6.022;2022-09-06T07:39:21;31.30;85.30
70726;DHT22;58304;53.104;6.022;2022-09-06T07:41:47;29.10;80.10
70726;DHT22;58304;53.104;6.022;2022-09-06T07:44:12;29.20;83.90
70726;DHT22;58304;53.104;6.022;2022-09-06T07:46:38;28.20;83.90
70726;DHT22;58304;53.104;6.022;2022-09-06T07:49:04;27.00;85.50
70726;DHT22;58304;53.104;6.022;2022-09-06T07:51:30;26.20;86.90
70726;DHT22;58304;53.104;6.022;2022-09-06T07:53:56;24.90;90.70
70726;DHT22;58304;53.104;6.022;2022-09-06T07:56:23;25.10;91.60
70726;DHT22;58304;53.104;6.022;2022-09-06T07:58:50;25.20;92.40
70726;DHT22;58304;53.104;6.022;2022-09-06T08:03:46;28.70;90.70
70726;DHT22;58304;53.104;6.022;2022-09-06T08:06:11;29.50;88.10
70726;DHT22;58304;53.104;6.022;2022-09-06T08:08:38;30.70;87.30
70726;DHT22;58304;53.104;6.022;2022-09-06T08:11:04;30.30;83.40
70726;DHT22;58304;53.104;6.022;2022-09-06T08:13:33;29.40;82.10
70726;DHT22;58304;53.104;6.022;2022-09-06T08:16:00;29.50;83.20
70726;DHT22;58304;53.104;6.022;2022-09-06T08:18:26;30.40;84.00
70726;DHT22;58304;53.104;6.022;2022-09-06T08:20:51;31.30;81.90
70726;DHT22;58304;53.104;6.022;2022-09-06T08:23:17;32.00;79.80
70726;DHT22;58304;53.104;6.022;2022-09-06T08:25:43;32.40;79.00
70726;DHT22;58304;53.104;6.022;2022-09-06T08:28:09;32.80;76.90
70726;DHT22;58304;53.104;6.022;2022-09-06T08:30:35;33.20;75.80
70726;DHT22;58304;53.104;6.022;2022-09-06T08:33:00;33.60;74.20
70726;DHT22;58304;53.104;6.022;2022-09-06T08:35:27;33.80;72.00
70726;DHT22;58304;53.104;6.022;2022-09-06T08:37:56;34.30;72.70
70726;DHT22;58304;53.104;6.022;2022-09-06T08:40:21;34.60;70.10
70726;DHT22;58304;53.104;6.022;2022-09-06T08:42:49;34.90;71.30
70726;DHT22;58304;53.104;6.022;2022-09-06T08:45:17;34.80;69.50
70726;DHT22;58304;53.104;6.022;2022-09-06T08:47:44;33.70;67.90
70726;DHT22;58304;53.104;6.022;2022-09-06T08:50:10;32.90;69.70
70726;DHT22;58304;53.104;6.022;2022-09-06T08:52:55;32.00;70.40
70726;DHT22;58304;53.104;6.022;2022-09-06T08:55:32;31.00;71.90
70726;DHT22;58304;53.104;6.022;2022-09-06T08:58:20;30.60;73.20
70726;DHT22;58304;53.104;6.022;2022-09-06T09:00:52;30.80;73.00
70726;DHT22;58304;53.104;6.022;2022-09-06T09:03:32;30.60;72.90
70726;DHT22;58304;53.104;6.022;2022-09-06T09:05:58;31.00;74.70
70726;DHT22;58304;53.104;6.022;2022-09-06T09:08:37;30.80;73.10
70726;DHT22;58304;53.104;6.022;2022-09-06T09:11:04;30.90;74.50
70726;DHT22;58304;53.104;6.022;2022-09-06T09:16:15;32.60;72.60
70726;DHT22;58304;53.104;6.022;2022-09-06T09:18:44;33.60;72.30
70726;DHT22;58304;53.104;6.022;2022-09-06T09:21:10;33.60;69.30
70726;DHT22;58304;53.104;6.022;2022-09-06T09:23:36;33.60;69.80
70726;DHT22;58304;53.104;6.022;2022-09-06T09:26:09;34.20;69.30
70726;DHT22;58304;53.104;6.022;2022-09-06T09:28:36;34.40;69.80
70726;DHT22;58304;53.104;6.022;2022-09-06T09:31:02;34.60;68.40
70726;DHT22;58304;53.104;6.022;2022-09-06T09:33:29;34.70;68.20
70726;DHT22;58304;53.104;6.022;2022-09-06T09:36:08;34.70;67.70
70726;DHT22;58304;53.104;6.022;2022-09-06T09:38:46;34.90;67.50
70726;DHT22;58304;53.104;6.022;2022-09-06T09:41:31;34.90;65.70
70726;DHT22;58304;53.104;6.022;2022-09-06T09:44:01;34.90;64.40
70726;DHT22;58304;53.104;6.022;2022-09-06T09:46:30;35.10;65.00
70726;DHT22;58304;53.104;6.022;2022-09-06T09:51:38;35.40;66.20
70726;DHT22;58304;53.104;6.022;2022-09-06T09:54:07;35.40;64.50
70726;DHT22;58304;53.104;6.022;2022-09-06T09:56:49;35.60;65.00
70726;DHT22;58304;53.104;6.022;2022-09-06T09:59:21;35.60;64.80
70726;DHT22;58304;53.104;6.022;2022-09-06T10:01:48;35.90;63.90
70726;DHT22;58304;53.104;6.022;2022-09-06T10:04:19;35.50;62.50
70726;DHT22;58304;53.104;6.022;2022-09-06T10:06:45;35.20;64.10
70726;DHT22;58304;53.104;6.022;2022-09-06T10:09:28;35.40;64.00
70726;DHT22;58304;53.104;6.022;2022-09-06T10:11:57;35.70;62.60
70726;DHT22;58304;53.104;6.022;2022-09-06T10:14:43;35.40;61.10
70726;DHT22;58304;53.104;6.022;2022-09-06T10:17:19;35.00;61.60
70726;DHT22;58304;53.104;6.022;2022-09-06T10:19:44;35.40;62.90
70726;DHT22;58304;53.104;6.022;2022-09-06T10:22:27;35.20;63.10
70726;DHT22;58304;53.104;6.022;2022-09-06T10:27:24;35.40;61.40
70726;DHT22;58304;53.104;6.022;2022-09-06T10:29:55;35.20;61.60
70726;DHT22;58304;53.104;6.022;2022-09-06T10:32:37;34.90;62.20
70726;DHT22;58304;53.104;6.022;2022-09-06T10:35:15;34.60;60.20
70726;DHT22;58304;53.104;6.022;2022-09-06T10:38:02;34.80;62.40
70726;DHT22;58304;53.104;6.022;2022-09-06T10:43:19;35.50;60.60
70726;DHT22;58304;53.104;6.022;2022-09-06T10:46:01;35.40;61.20
70726;DHT22;58304;53.104;6.022;2022-09-06T10:48:48;35.70;60.80
70726;DHT22;58304;53.104;6.022;2022-09-06T10:54:12;35.50;61.10
70726;DHT22;58304;53.104;6.022;2022-09-06T10:56:58;35.20;59.60
70726;DHT22;58304;53.104;6.022;2022-09-06T11:04:37;35.50;59.20
70726;DHT22;58304;53.104;6.022;2022-09-06T11:09:53;35.20;59.70
70726;DHT22;58304;53.104;6.022;2022-09-06T11:12:35;34.90;58.00
70726;DHT22;58304;53.104;6.022;2022-09-06T11:15:04;34.50;60.70
70726;DHT22;58304;53.104;6.022;2022-09-06T11:17:51;34.20;60.40
70726;DHT22;58304;53.104;6.022;2022-09-06T11:28:54;34.80;60.30
70726;DHT22;58304;53.104;6.022;2022-09-06T11:31:32;34.60;60.20
70726;DHT22;58304;53.104;6.022;2022-09-06T11:34:08;34.30;60.00
70726;DHT22;58304;53.104;6.022;2022-09-06T11:36:50;34.10;60.10
70726;DHT22;58304;53.104;6.022;2022-09-06T11:39:37;34.60;60.80
70726;DHT22;58304;53.104;6.022;2022-09-06T11:47:44;32.70;61.90
70726;DHT22;58304;53.104;6.022;2022-09-06T11:53:16;33.30;62.70
70726;DHT22;58304;53.104;6.022;2022-09-06T11:56:08;33.60;61.30
70726;DHT22;58304;53.104;6.022;2022-09-06T12:08:55;33.60;61.30
70726;DHT22;58304;53.104;6.022;2022-09-06T12:11:33;33.60;60.80
70726;DHT22;58304;53.104;6.022;2022-09-06T12:14:03;33.70;61.00
70726;DHT22;58304;53.104;6.022;2022-09-06T12:27:57;35.00;59.30
70726;DHT22;58304;53.104;6.022;2022-09-06T12:33:04;34.00;58.20
70726;DHT22;58304;53.104;6.022;2022-09-06T12:35:30;34.60;58.30
70726;DHT22;58304;53.104;6.022;2022-09-06T12:38:01;34.30;57.70
70726;DHT22;58304;53.104;6.022;2022-09-06T12:40:32;33.60;59.00
70726;DHT22;58304;53.104;6.022;2022-09-06T12:43:01;34.00;59.20
70726;DHT22;58304;53.104;6.022;2022-09-06T12:45:27;34.40;59.70
70726;DHT22;58304;53.104;6.022;2022-09-06T12:48:08;34.90;59.40
70726;DHT22;58304;53.104;6.022;2022-09-06T12:50:35;34.90;58.80
70726;DHT22;58304;53.104;6.022;2022-09-06T12:53:04;34.50;59.10
70726;DHT22;58304;53.104;6.022;2022-09-06T12:55:40;35.10;59.20
70726;DHT22;58304;53.104;6.022;2022-09-06T12:58:09;35.20;59.00
70726;DHT22;58304;53.104;6.022;2022-09-06T13:00:41;35.40;58.70
70726;DHT22;58304;53.104;6.022;2022-09-06T13:05:55;35.30;58.40
70726;DHT22;58304;53.104;6.022;2022-09-06T13:08:37;35.00;59.10
70726;DHT22;58304;53.104;6.022;2022-09-06T13:11:09;34.30;59.10
70726;DHT22;58304;53.104;6.022;2022-09-06T13:13:35;33.70;60.50
70726;DHT22;58304;53.104;6.022;2022-09-06T13:16:01;34.30;60.30
70726;DHT22;58304;53.104;6.022;2022-09-06T13:18:33;34.70;60.10
70726;DHT22;58304;53.104;6.022;2022-09-06T13:21:05;35.00;60.00
70726;DHT22;58304;53.104;6.022;2022-09-06T13:23:47;35.00;59.50
70726;DHT22;58304;53.104;6.022;2022-09-06T13:26:31;34.80;59.20
70726;DHT22;58304;53.104;6.022;2022-09-06T13:31:46;35.00;60.10
70726;DHT22;58304;53.104;6.022;2022-09-06T13:34:29;35.30;59.80
70726;DHT22;58304;53.104;6.022;2022-09-06T13:37:04;35.20;59.10
70726;DHT22;58304;53.104;6.022;2022-09-06T13:39:39;35.10;58.80
70726;DHT22;58304;53.104;6.022;2022-09-06T13:42:10;34.80;59.80
70726;DHT22;58304;53.104;6.022;2022-09-06T13:44:38;34.90;60.00
70726;DHT22;58304;53.104;6.022;2022-09-06T13:47:04;35.10;59.70
70726;DHT22;58304;53.104;6.022;2022-09-06T13:49:30;34.70;59.50
70726;DHT22;58304;53.104;6.022;2022-09-06T13:52:01;35.20;59.40
70726;DHT22;58304;53.104;6.022;2022-09-06T13:54:28;35.60;58.40
70726;DHT22;58304;53.104;6.022;2022-09-06T13:56:54;35.60;58.10
70726;DHT22;58304;53.104;6.022;2022-09-06T13:59:21;35.60;57.70
70726;DHT22;58304;53.104;6.022;2022-09-06T14:01:52;35.30;57.90
70726;DHT22;58304;53.104;6.022;2022-09-06T14:04:20;35.70;57.70
70726;DHT22;58304;53.104;6.022;2022-09-06T14:06:46;35.60;57.00
70726;DHT22;58304;53.104;6.022;2022-09-06T14:09:13;35.60;57.00
70726;DHT22;58304;53.104;6.022;2022-09-06T14:11:39;35.70;56.40
70726;DHT22;58304;53.104;6.022;2022-09-06T14:14:05;34.80;56.40
70726;DHT22;58304;53.104;6.022;2022-09-06T14:16:31;34.90;57.20
70726;DHT22;58304;53.104;6.022;2022-09-06T14:18:57;35.00;57.10
70726;DHT22;58304;53.104;6.022;2022-09-06T14:21:23;35.00;57.10
70726;DHT22;58304;53.104;6.022;2022-09-06T14:23:50;34.70;57.20
70726;DHT22;58304;53.104;6.022;2022-09-06T14:26:16;34.60;57.60
70726;DHT22;58304;53.104;6.022;2022-09-06T14:28:43;34.60;58.00
70726;DHT22;58304;53.104;6.022;2022-09-06T14:31:14;34.70;58.60
70726;DHT22;58304;53.104;6.022;2022-09-06T14:33:40;34.70;59.00
70726;DHT22;58304;53.104;6.022;2022-09-06T14:36:08;34.70;59.20
70726;DHT22;58304;53.104;6.022;2022-09-06T14:38:36;34.70;59.10
70726;DHT22;58304;53.104;6.022;2022-09-06T14:41:02;34.80;59.00
70726;DHT22;58304;53.104;6.022;2022-09-06T14:43:29;34.80;59.40
70726;DHT22;58304;53.104;6.022;2022-09-06T14:46:03;34.80;60.20
70726;DHT22;58304;53.104;6.022;2022-09-06T14:48:30;34.80;60.10
70726;DHT22;58304;53.104;6.022;2022-09-06T14:50:56;34.80;60.40
70726;DHT22;58304;53.104;6.022;2022-09-06T14:53:22;34.60;60.20
70726;DHT22;58304;53.104;6.022;2022-09-06T14:55:48;34.70;60.60
70726;DHT22;58304;53.104;6.022;2022-09-06T14:58:13;34.60;60.60
70726;DHT22;58304;53.104;6.022;2022-09-06T15:00:40;34.60;60.20
70726;DHT22;58304;53.104;6.022;2022-09-06T15:03:05;34.30;60.50
70726;DHT22;58304;53.104;6.022;2022-09-06T15:05:31;34.30;60.50
70726;DHT22;58304;53.104;6.022;2022-09-06T15:07:56;34.00;60.40
70726;DHT22;58304;53.104;6.022;2022-09-06T15:10:22;34.00;60.30
70726;DHT22;58304;53.104;6.022;2022-09-06T15:12:48;33.90;60.40
70726;DHT22;58304;53.104;6.022;2022-09-06T15:15:13;33.30;60.80
70726;DHT22;58304;53.104;6.022;2022-09-06T15:17:39;33.40;61.50
70726;DHT22;58304;53.104;6.022;2022-09-06T15:20:04;33.10;61.70
70726;DHT22;58304;53.104;6.022;2022-09-06T15:22:30;33.10;61.80
70726;DHT22;58304;53.104;6.022;2022-09-06T15:24:56;33.00;61.80
70726;DHT22;58304;53.104;6.022;2022-09-06T15:27:21;33.00;62.30
70726;DHT22;58304;53.104;6.022;2022-09-06T15:29:47;32.80;62.40
70726;DHT22;58304;53.104;6.022;2022-09-06T15:32:13;32.80;62.90
70726;DHT22;58304;53.104;6.022;2022-09-06T15:34:38;32.70;63.40
70726;DHT22;58304;53.104;6.022;2022-09-06T15:37:04;32.60;63.20
70726;DHT22;58304;53.104;6.022;2022-09-06T15:39:29;32.50;64.00
70726;DHT22;58304;53.104;6.022;2022-09-06T15:41:55;32.30;64.00
70726;DHT22;58304;53.104;6.022;2022-09-06T15:44:22;32.20;64.20
70726;DHT22;58304;53.104;6.022;2022-09-06T15:46:53;32.00;64.70
70726;DHT22;58304;53.104;6.022;2022-09-06T15:49:28;31.90;65.10
70726;DHT22;58304;53.104;6.022;2022-09-06T15:51:56;31.60;65.80
70726;DHT22;58304;53.104;6.022;2022-09-06T15:54:22;31.60;65.90
70726;DHT22;58304;53.104;6.022;2022-09-06T15:57:08;31.60;65.90
70726;DHT22;58304;53.104;6.022;2022-09-06T15:59:34;31.50;66.10
70726;DHT22;58304;53.104;6.022;2022-09-06T16:02:00;31.40;66.30
70726;DHT22;58304;53.104;6.022;2022-09-06T16:04:26;31.20;66.40
70726;DHT22;58304;53.104;6.022;2022-09-06T16:06:51;31.20;66.70
70726;DHT22;58304;53.104;6.022;2022-09-06T16:09:17;31.20;67.30
70726;DHT22;58304;53.104;6.022;2022-09-06T16:11:43;31.00;67.60
70726;DHT22;58304;53.104;6.022;2022-09-06T16:14:11;31.00;68.00
70726;DHT22;58304;53.104;6.022;2022-09-06T16:16:37;31.00;68.70
70726;DHT22;58304;53.104;6.022;2022-09-06T16:19:04;30.90;68.60
70726;DHT22;58304;53.104;6.022;2022-09-06T16:21:32;31.00;68.50
70726;DHT22;58304;53.104;6.022;2022-09-06T16:24:03;30.90;68.50
70726;DHT22;58304;53.104;6.022;2022-09-06T16:26:32;30.70;68.40
70726;DHT22;58304;53.104;6.022;2022-09-06T16:28:58;30.60;68.70
70726;DHT22;58304;53.104;6.022;2022-09-06T16:31:24;30.50;68.80
70726;DHT22;58304;53.104;6.022;2022-09-06T16:33:51;30.30;68.90
70726;DHT22;58304;53.104;6.022;2022-09-06T16:36:18;30.10;69.00
70726;DHT22;58304;53.104;6.022;2022-09-06T16:38:44;29.80;69.70
70726;DHT22;58304;53.104;6.022;2022-09-06T16:43:37;29.50;71.60
70726;DHT22;58304;53.104;6.022;2022-09-06T16:46:03;29.30;71.80
70726;DHT22;58304;53.104;6.022;2022-09-06T16:48:29;29.20;72.30
70726;DHT22;58304;53.104;6.022;2022-09-06T16:50:55;29.00;72.60
70726;DHT22;58304;53.104;6.022;2022-09-06T16:53:21;28.70;73.50
70726;DHT22;58304;53.104;6.022;2022-09-06T16:55:47;28.60;73.40
70726;DHT22;58304;53.104;6.022;2022-09-06T16:58:12;28.40;73.40
70726;DHT22;58304;53.104;6.022;2022-09-06T17:00:39;28.40;73.20
70726;DHT22;58304;53.104;6.022;2022-09-06T17:03:05;28.30;73.20
70726;DHT22;58304;53.104;6.022;2022-09-06T17:05:33;28.20;73.00
70726;DHT22;58304;53.104;6.022;2022-09-06T17:07:59;28.30;73.00
70726;DHT22;58304;53.104;6.022;2022-09-06T17:10:25;28.20;73.00
70726;DHT22;58304;53.104;6.022;2022-09-06T17:12:51;28.10;73.20
70726;DHT22;58304;53.104;6.022;2022-09-06T17:15:16;28.00;73.70
70726;DHT22;58304;53.104;6.022;2022-09-06T17:17:42;27.80;74.00
70726;DHT22;58304;53.104;6.022;2022-09-06T17:20:08;27.70;74.30
70726;DHT22;58304;53.104;6.022;2022-09-06T17:22:34;27.50;75.60
70726;DHT22;58304;53.104;6.022;2022-09-06T17:25:01;27.40;76.00
70726;DHT22;58304;53.104;6.022;2022-09-06T17:27:27;27.30;76.30
70726;DHT22;58304;53.104;6.022;2022-09-06T17:29:53;27.10;77.00